sensor_id;sensor_type;location;lat;lon;timestamp;P1;durP1;ratioP1;P2;durP2;ratioP2
5688;SDS011;2869;50.432;8.680;2022-08-18T00:02:16;14.93;;;12.63;;
5688;SDS011;2869;50.432;8.680;2022-08-18T00:04:46;14.50;;;13.10;;
5688;SDS011;2869;50.432;8.680;2022-08-18T00:07:14;20.53;;;12.90;;
5688;SDS011;2869;50.432;8.680;2022-08-18T00:09:42;13.07;;;11.70;;
5688;SDS011;2869;50.432;8.680;2022-08-18T00:12:11;18.35;;;11.57;;
5688;SDS011;2869;50.432;8.680;2022-08-18T00:14:39;15.33;;;12.40;;
5688;SDS011;2869;50.432;8.680;2022-08-18T00:17:06;12.50;;;11.30;;
5688;SDS011;2869;50.432;8.680;2022-08-18T00:19:33;13.40;;;11.97;;
5688;SDS011;2869;50.432;8.680;2022-08-18T00:22:01;15.23;;;13.63;;
5688;SDS011;2869;50.432;8.680;2022-08-18T00:24:27;15.47;;;13.50;;
5688;SDS011;2869;50.432;8.680;2022-08-18T00:26:55;16.93;;;14.40;;
5688;SDS011;2869;50.432;8.680;2022-08-18T00:29:21;18.03;;;14.10;;
5688;SDS011;2869;50.432;8.680;2022-08-18T00:31:48;13.53;;;12.13;;
5688;SDS011;2869;50.432;8.680;2022-08-18T00:34:15;15.87;;;14.17;;
5688;SDS011;2869;50.432;8.680;2022-08-18T00:36:42;20.47;;;14.20;;
5688;SDS011;2869;50.432;8.680;2022-08-18T00:39:10;15.70;;;13.03;;
5688;SDS011;2869;50.432;8.680;2022-08-18T00:41:37;15.85;;;12.57;;
5688;SDS011;2869;50.432;8.680;2022-08-18T00:44:04;14.82;;;12.52;;
5688;SDS011;2869;50.432;8.680;2022-08-18T00:46:32;15.43;;;13.70;;
5688;SDS011;2869;50.432;8.680;2022-08-18T00:49:00;17.80;;;12.73;;
5688;SDS011;2869;50.432;8.680;2022-08-18T00:51:28;13.30;;;11.30;;
5688;SDS011;2869;50.432;8.680;2022-08-18T00:53:59;14.82;;;11.38;;
5688;SDS011;2869;50.432;8.680;2022-08-18T00:56:30;13.50;;;12.10;;
5688;SDS011;2869;50.432;8.680;2022-08-18T00:59:02;15.67;;;12.47;;
5688;SDS011;2869;50.432;8.680;2022-08-18T01:01:33;13.77;;;11.82;;
5688;SDS011;2869;50.432;8.680;2022-08-18T01:04:03;12.40;;;11.13;;
5688;SDS011;2869;50.432;8.680;2022-08-18T01:06:36;14.73;;;11.27;;
5688;SDS011;2869;50.432;8.680;2022-08-18T01:09:05;13.03;;;11.30;;
5688;SDS011;2869;50.432;8.680;2022-08-18T01:11:34;12.87;;;11.50;;
5688;SDS011;2869;50.432;8.680;2022-08-18T01:14:02;12.47;;;11.27;;
5688;SDS011;2869;50.432;8.680;2022-08-18T01:16:29;16.43;;;11.47;;
5688;SDS011;2869;50.432;8.680;2022-08-18T01:19:14;12.50;;;11.20;;
5688;SDS011;2869;50.432;8.680;2022-08-18T01:22:01;12.48;;;11.20;;
5688;SDS011;2869;50.432;8.680;2022-08-18T01:24:33;13.73;;;12.23;;
5688;SDS011;2869;50.432;8.680;2022-08-18T01:27:22;13.00;;;10.90;;
5688;SDS011;2869;50.432;8.680;2022-08-18T01:29:49;17.37;;;11.60;;
5688;SDS011;2869;50.432;8.680;2022-08-18T01:32:16;13.30;;;11.90;;
5688;SDS011;2869;50.432;8.680;2022-08-18T01:34:45;14.00;;;11.93;;
5688;SDS011;2869;50.432;8.680;2022-08-18T01:37:14;13.97;;;11.23;;
5688;SDS011;2869;50.432;8.680;2022-08-18T01:39:43;13.57;;;11.68;;
5688;SDS011;2869;50.432;8.680;2022-08-18T01:42:11;13.30;;;11.32;;
5688;SDS011;2869;50.432;8.680;2022-08-18T01:44:41;15.67;;;12.03;;
5688;SDS011;2869;50.432;8.680;2022-08-18T01:47:08;13.27;;;11.90;;
5688;SDS011;2869;50.432;8.680;2022-08-18T01:49:36;12.90;;;11.63;;
5688;SDS011;2869;50.432;8.680;2022-08-18T01:52:04;14.43;;;11.93;;
5688;SDS011;2869;50.432;8.680;2022-08-18T01:54:32;13.03;;;11.70;;
5688;SDS011;2869;50.432;8.680;2022-08-18T01:57:00;12.93;;;11.63;;
5688;SDS011;2869;50.432;8.680;2022-08-18T01:59:27;12.85;;;11.55;;
5688;SDS011;2869;50.432;8.680;2022-08-18T02:01:54;16.85;;;12.55;;
5688;SDS011;2869;50.432;8.680;2022-08-18T02:04:24;13.30;;;11.63;;
5688;SDS011;2869;50.432;8.680;2022-08-18T02:06:57;15.50;;;12.83;;
5688;SDS011;2869;50.432;8.680;2022-08-18T02:09:24;15.30;;;12.57;;
5688;SDS011;2869;50.432;8.680;2022-08-18T02:11:51;16.83;;;13.70;;
5688;SDS011;2869;50.432;8.680;2022-08-18T02:14:18;14.77;;;13.17;;
5688;SDS011;2869;50.432;8.680;2022-08-18T02:16:45;15.00;;;13.57;;
5688;SDS011;2869;50.432;8.680;2022-08-18T02:19:12;15.10;;;13.57;;
5688;SDS011;2869;50.432;8.680;2022-08-18T02:21:39;14.50;;;13.00;;
5688;SDS011;2869;50.432;8.680;2022-08-18T02:24:05;16.60;;;14.80;;
5688;SDS011;2869;50.432;8.680;2022-08-18T02:26:32;15.88;;;14.20;;
5688;SDS011;2869;50.432;8.680;2022-08-18T02:28:59;14.95;;;13.45;;
5688;SDS011;2869;50.432;8.680;2022-08-18T02:31:27;16.40;;;14.30;;
5688;SDS011;2869;50.432;8.680;2022-08-18T02:33:53;18.90;;;13.90;;
5688;SDS011;2869;50.432;8.680;2022-08-18T02:36:21;19.37;;;13.97;;
5688;SDS011;2869;50.432;8.680;2022-08-18T02:38:48;16.17;;;14.50;;
5688;SDS011;2869;50.432;8.680;2022-08-18T02:41:14;16.70;;;14.27;;
5688;SDS011;2869;50.432;8.680;2022-08-18T02:43:41;17.90;;;14.00;;
5688;SDS011;2869;50.432;8.680;2022-08-18T02:46:08;16.90;;;14.23;;
5688;SDS011;2869;50.432;8.680;2022-08-18T02:48:36;17.90;;;14.50;;
5688;SDS011;2869;50.432;8.680;2022-08-18T02:51:04;16.30;;;14.60;;
5688;SDS011;2869;50.432;8.680;2022-08-18T02:53:32;17.13;;;13.90;;
5688;SDS011;2869;50.432;8.680;2022-08-18T02:56:03;19.03;;;14.30;;
5688;SDS011;2869;50.432;8.680;2022-08-18T02:58:40;15.30;;;13.50;;
5688;SDS011;2869;50.432;8.680;2022-08-18T03:01:07;15.83;;;13.60;;
5688;SDS011;2869;50.432;8.680;2022-08-18T03:03:34;16.03;;;14.00;;
5688;SDS011;2869;50.432;8.680;2022-08-18T03:06:02;16.77;;;14.30;;
5688;SDS011;2869;50.432;8.680;2022-08-18T03:08:28;16.07;;;14.33;;
5688;SDS011;2869;50.432;8.680;2022-08-18T03:10:56;17.47;;;14.63;;
5688;SDS011;2869;50.432;8.680;2022-08-18T03:13:22;15.73;;;12.90;;
5688;SDS011;2869;50.432;8.680;2022-08-18T03:15:49;15.70;;;13.77;;
5688;SDS011;2869;50.432;8.680;2022-08-18T03:18:16;14.97;;;13.47;;
5688;SDS011;2869;50.432;8.680;2022-08-18T03:20:43;15.83;;;13.67;;
5688;SDS011;2869;50.432;8.680;2022-08-18T03:23:12;15.70;;;14.00;;
5688;SDS011;2869;50.432;8.680;2022-08-18T03:25:42;15.40;;;13.80;;
5688;SDS011;2869;50.432;8.680;2022-08-18T03:28:10;15.75;;;14.10;;
5688;SDS011;2869;50.432;8.680;2022-08-18T03:30:37;20.20;;;14.60;;
5688;SDS011;2869;50.432;8.680;2022-08-18T03:33:03;17.45;;;13.98;;
5688;SDS011;2869;50.432;8.680;2022-08-18T03:35:30;17.90;;;14.53;;
5688;SDS011;2869;50.432;8.680;2022-08-18T03:37:59;21.53;;;15.50;;
5688;SDS011;2869;50.432;8.680;2022-08-18T03:40:27;17.53;;;15.23;;
5688;SDS011;2869;50.432;8.680;2022-08-18T03:42:54;17.70;;;15.27;;
5688;SDS011;2869;50.432;8.680;2022-08-18T03:45:20;16.75;;;14.95;;
5688;SDS011;2869;50.432;8.680;2022-08-18T03:47:48;18.73;;;15.07;;
5688;SDS011;2869;50.432;8.680;2022-08-18T03:50:16;23.53;;;16.10;;
5688;SDS011;2869;50.432;8.680;2022-08-18T03:52:43;18.20;;;15.13;;
5688;SDS011;2869;50.432;8.680;2022-08-18T03:55:12;17.67;;;14.80;;
5688;SDS011;2869;50.432;8.680;2022-08-18T03:57:41;16.27;;;14.57;;
5688;SDS011;2869;50.432;8.680;2022-08-18T04:00:08;15.30;;;13.73;;
5688;SDS011;2869;50.432;8.680;2022-08-18T04:02:35;20.17;;;14.73;;
5688;SDS011;2869;50.432;8.680;2022-08-18T04:05:03;15.93;;;14.30;;
5688;SDS011;2869;50.432;8.680;2022-08-18T04:07:30;16.67;;;14.93;;
5688;SDS011;2869;50.432;8.680;2022-08-18T04:09:56;22.03;;;15.23;;
5688;SDS011;2869;50.432;8.680;2022-08-18T04:12:23;19.20;;;16.23;;
5688;SDS011;2869;50.432;8.680;2022-08-18T04:14:51;20.40;;;15.97;;
5688;SDS011;2869;50.432;8.680;2022-08-18T04:17:18;19.90;;;16.00;;
5688;SDS011;2869;50.432;8.680;2022-08-18T04:19:49;17.87;;;15.20;;
5688;SDS011;2869;50.432;8.680;2022-08-18T04:22:16;21.87;;;15.67;;
5688;SDS011;2869;50.432;8.680;2022-08-18T04:24:43;18.13;;;14.30;;
5688;SDS011;2869;50.432;8.680;2022-08-18T04:27:10;17.43;;;15.47;;
5688;SDS011;2869;50.432;8.680;2022-08-18T04:29:37;21.63;;;16.43;;
5688;SDS011;2869;50.432;8.680;2022-08-18T04:32:05;19.93;;;15.60;;
5688;SDS011;2869;50.432;8.680;2022-08-18T04:34:32;23.30;;;15.53;;
5688;SDS011;2869;50.432;8.680;2022-08-18T04:37:00;22.20;;;16.50;;
5688;SDS011;2869;50.432;8.680;2022-08-18T04:39:27;19.23;;;14.50;;
5688;SDS011;2869;50.432;8.680;2022-08-18T04:41:54;19.53;;;15.20;;
5688;SDS011;2869;50.432;8.680;2022-08-18T04:44:21;18.43;;;15.23;;
5688;SDS011;2869;50.432;8.680;2022-08-18T04:46:48;19.80;;;16.43;;
5688;SDS011;2869;50.432;8.680;2022-08-18T04:49:18;19.10;;;15.33;;
5688;SDS011;2869;50.432;8.680;2022-08-18T04:51:50;21.80;;;16.27;;
5688;SDS011;2869;50.432;8.680;2022-08-18T04:54:31;20.00;;;14.95;;
5688;SDS011;2869;50.432;8.680;2022-08-18T04:57:05;19.50;;;15.10;;
5688;SDS011;2869;50.432;8.680;2022-08-18T04:59:33;16.80;;;14.80;;
5688;SDS011;2869;50.432;8.680;2022-08-18T05:02:00;19.23;;;15.00;;
5688;SDS011;2869;50.432;8.680;2022-08-18T05:04:31;18.67;;;14.10;;
5688;SDS011;2869;50.432;8.680;2022-08-18T05:06:58;18.60;;;15.87;;
5688;SDS011;2869;50.432;8.680;2022-08-18T05:09:25;16.50;;;14.77;;
5688;SDS011;2869;50.432;8.680;2022-08-18T05:11:52;18.73;;;14.07;;
5688;SDS011;2869;50.432;8.680;2022-08-18T05:14:19;19.43;;;15.70;;
5688;SDS011;2869;50.432;8.680;2022-08-18T05:16:46;21.52;;;15.90;;
5688;SDS011;2869;50.432;8.680;2022-08-18T05:19:13;18.93;;;14.20;;
5688;SDS011;2869;50.432;8.680;2022-08-18T05:21:45;15.57;;;13.88;;
5688;SDS011;2869;50.432;8.680;2022-08-18T05:24:11;24.30;;;16.47;;
5688;SDS011;2869;50.432;8.680;2022-08-18T05:26:38;23.33;;;15.50;;
5688;SDS011;2869;50.432;8.680;2022-08-18T05:29:05;15.20;;;13.60;;
5688;SDS011;2869;50.432;8.680;2022-08-18T05:31:32;15.60;;;13.00;;
5688;SDS011;2869;50.432;8.680;2022-08-18T05:33:59;17.50;;;15.40;;
5688;SDS011;2869;50.432;8.680;2022-08-18T05:36:35;17.53;;;14.53;;
5688;SDS011;2869;50.432;8.680;2022-08-18T05:39:18;20.23;;;16.00;;
5688;SDS011;2869;50.432;8.680;2022-08-18T05:41:49;16.97;;;15.07;;
5688;SDS011;2869;50.432;8.680;2022-08-18T05:44:21;20.83;;;14.80;;
5688;SDS011;2869;50.432;8.680;2022-08-18T05:46:53;17.13;;;15.23;;
5688;SDS011;2869;50.432;8.680;2022-08-18T05:49:23;22.50;;;15.73;;
5688;SDS011;2869;50.432;8.680;2022-08-18T05:51:51;20.80;;;16.53;;
5688;SDS011;2869;50.432;8.680;2022-08-18T05:54:21;20.23;;;16.07;;
5688;SDS011;2869;50.432;8.680;2022-08-18T05:57:09;21.23;;;17.03;;
5688;SDS011;2869;50.432;8.680;2022-08-18T05:59:40;17.92;;;15.88;;
5688;SDS011;2869;50.432;8.680;2022-08-18T06:02:10;19.93;;;16.00;;
5688;SDS011;2869;50.432;8.680;2022-08-18T06:04:42;17.20;;;14.60;;
5688;SDS011;2869;50.432;8.680;2022-08-18T06:07:14;15.60;;;12.90;;
5688;SDS011;2869;50.432;8.680;2022-08-18T06:09:45;27.93;;;14.90;;
5688;SDS011;2869;50.432;8.680;2022-08-18T06:12:23;19.60;;;14.80;;
5688;SDS011;2869;50.432;8.680;2022-08-18T06:14:53;19.40;;;16.17;;
5688;SDS011;2869;50.432;8.680;2022-08-18T06:17:36;21.30;;;15.50;;
5688;SDS011;2869;50.432;8.680;2022-08-18T06:20:18;26.20;;;17.00;;
5688;SDS011;2869;50.432;8.680;2022-08-18T06:22:52;17.63;;;15.73;;
5688;SDS011;2869;50.432;8.680;2022-08-18T06:25:26;25.70;;;17.90;;
5688;SDS011;2869;50.432;8.680;2022-08-18T06:28:00;25.13;;;16.53;;
5688;SDS011;2869;50.432;8.680;2022-08-18T06:30:34;20.60;;;16.57;;
5688;SDS011;2869;50.432;8.680;2022-08-18T06:33:11;21.20;;;16.83;;
5688;SDS011;2869;50.432;8.680;2022-08-18T06:35:45;22.83;;;17.20;;
5688;SDS011;2869;50.432;8.680;2022-08-18T06:38:20;19.13;;;16.40;;
5688;SDS011;2869;50.432;8.680;2022-08-18T06:41:09;22.70;;;17.63;;
5688;SDS011;2869;50.432;8.680;2022-08-18T06:43:40;20.23;;;15.20;;
5688;SDS011;2869;50.432;8.680;2022-08-18T06:46:17;24.07;;;18.30;;
5688;SDS011;2869;50.432;8.680;2022-08-18T06:48:49;20.73;;;16.90;;
5688;SDS011;2869;50.432;8.680;2022-08-18T06:51:20;19.13;;;17.07;;
5688;SDS011;2869;50.432;8.680;2022-08-18T06:53:49;22.80;;;18.93;;
5688;SDS011;2869;50.432;8.680;2022-08-18T06:56:21;23.90;;;18.17;;
5688;SDS011;2869;50.432;8.680;2022-08-18T06:58:51;21.57;;;18.17;;
5688;SDS011;2869;50.432;8.680;2022-08-18T07:01:19;21.67;;;18.57;;
5688;SDS011;2869;50.432;8.680;2022-08-18T07:03:48;31.30;;;19.13;;
5688;SDS011;2869;50.432;8.680;2022-08-18T07:06:27;23.47;;;17.40;;
5688;SDS011;2869;50.432;8.680;2022-08-18T07:11:57;24.50;;;19.10;;
5688;SDS011;2869;50.432;8.680;2022-08-18T07:14:27;26.57;;;17.20;;
5688;SDS011;2869;50.432;8.680;2022-08-18T07:17:04;20.40;;;18.20;;
5688;SDS011;2869;50.432;8.680;2022-08-18T07:19:32;22.87;;;16.87;;
5688;SDS011;2869;50.432;8.680;2022-08-18T07:22:00;26.07;;;17.97;;
5688;SDS011;2869;50.432;8.680;2022-08-18T07:24:29;21.03;;;17.70;;
5688;SDS011;2869;50.432;8.680;2022-08-18T07:27:01;20.60;;;17.65;;
5688;SDS011;2869;50.432;8.680;2022-08-18T07:29:30;20.10;;;17.77;;
5688;SDS011;2869;50.432;8.680;2022-08-18T07:31:59;20.90;;;17.05;;
5688;SDS011;2869;50.432;8.680;2022-08-18T07:34:30;21.13;;;18.40;;
5688;SDS011;2869;50.432;8.680;2022-08-18T07:37:02;21.40;;;17.83;;
5688;SDS011;2869;50.432;8.680;2022-08-18T07:39:33;24.10;;;17.92;;
5688;SDS011;2869;50.432;8.680;2022-08-18T07:42:07;26.57;;;18.30;;
5688;SDS011;2869;50.432;8.680;2022-08-18T07:44:41;24.57;;;18.93;;
5688;SDS011;2869;50.432;8.680;2022-08-18T07:47:12;25.50;;;17.67;;
5688;SDS011;2869;50.432;8.680;2022-08-18T07:49:43;29.77;;;18.97;;
5688;SDS011;2869;50.432;8.680;2022-08-18T07:52:13;26.10;;;18.40;;
5688;SDS011;2869;50.432;8.680;2022-08-18T07:54:46;27.60;;;19.13;;
5688;SDS011;2869;50.432;8.680;2022-08-18T07:57:25;23.45;;;17.85;;
5688;SDS011;2869;50.432;8.680;2022-08-18T08:00:03;23.20;;;18.70;;
5688;SDS011;2869;50.432;8.680;2022-08-18T08:02:38;26.23;;;19.50;;
5688;SDS011;2869;50.432;8.680;2022-08-18T08:05:14;20.13;;;17.70;;
5688;SDS011;2869;50.432;8.680;2022-08-18T08:07:48;24.83;;;19.43;;
5688;SDS011;2869;50.432;8.680;2022-08-18T08:10:23;25.20;;;17.17;;
5688;SDS011;2869;50.432;8.680;2022-08-18T08:13:01;23.53;;;19.20;;
5688;SDS011;2869;50.432;8.680;2022-08-18T08:15:34;27.43;;;18.73;;
5688;SDS011;2869;50.432;8.680;2022-08-18T08:18:10;24.10;;;17.77;;
5688;SDS011;2869;50.432;8.680;2022-08-18T08:20:44;20.70;;;17.30;;
5688;SDS011;2869;50.432;8.680;2022-08-18T08:23:17;25.17;;;18.23;;
5688;SDS011;2869;50.432;8.680;2022-08-18T08:28:54;20.23;;;17.00;;
5688;SDS011;2869;50.432;8.680;2022-08-18T08:31:34;17.87;;;15.97;;
5688;SDS011;2869;50.432;8.680;2022-08-18T08:34:09;25.95;;;16.92;;
5688;SDS011;2869;50.432;8.680;2022-08-18T08:36:41;19.30;;;16.67;;
5688;SDS011;2869;50.432;8.680;2022-08-18T08:39:11;22.80;;;16.42;;
5688;SDS011;2869;50.432;8.680;2022-08-18T08:41:44;26.90;;;17.40;;
5688;SDS011;2869;50.432;8.680;2022-08-18T08:44:18;23.10;;;15.40;;
5688;SDS011;2869;50.432;8.680;2022-08-18T08:46:50;18.83;;;16.73;;
5688;SDS011;2869;50.432;8.680;2022-08-18T08:49:28;20.53;;;16.50;;
5688;SDS011;2869;50.432;8.680;2022-08-18T08:51:59;18.70;;;15.97;;
5688;SDS011;2869;50.432;8.680;2022-08-18T08:54:30;18.00;;;15.83;;
5688;SDS011;2869;50.432;8.680;2022-08-18T08:57:06;20.70;;;16.47;;
5688;SDS011;2869;50.432;8.680;2022-08-18T08:59:36;29.33;;;16.80;;
5688;SDS011;2869;50.432;8.680;2022-08-18T09:02:11;22.83;;;16.10;;
5688;SDS011;2869;50.432;8.680;2022-08-18T09:04:59;20.63;;;15.27;;
5688;SDS011;2869;50.432;8.680;2022-08-18T09:07:36;21.40;;;15.43;;
5688;SDS011;2869;50.432;8.680;2022-08-18T09:13:39;25.70;;;15.95;;
5688;SDS011;2869;50.432;8.680;2022-08-18T09:16:21;19.63;;;15.95;;
5688;SDS011;2869;50.432;8.680;2022-08-18T09:19:06;30.73;;;15.93;;
5688;SDS011;2869;50.432;8.680;2022-08-18T09:21:42;20.70;;;15.97;;
5688;SDS011;2869;50.432;8.680;2022-08-18T09:24:17;18.80;;;16.27;;
5688;SDS011;2869;50.432;8.680;2022-08-18T09:26:49;20.10;;;17.10;;
5688;SDS011;2869;50.432;8.680;2022-08-18T09:29:23;18.90;;;15.80;;
5688;SDS011;2869;50.432;8.680;2022-08-18T09:35:00;18.40;;;16.10;;
5688;SDS011;2869;50.432;8.680;2022-08-18T09:37:38;16.50;;;14.67;;
5688;SDS011;2869;50.432;8.680;2022-08-18T09:40:12;20.90;;;16.00;;
5688;SDS011;2869;50.432;8.680;2022-08-18T09:43:05;22.80;;;16.10;;
5688;SDS011;2869;50.432;8.680;2022-08-18T09:45:40;22.13;;;16.23;;
5688;SDS011;2869;50.432;8.680;2022-08-18T09:48:25;22.70;;;15.37;;
5688;SDS011;2869;50.432;8.680;2022-08-18T09:51:13;18.03;;;14.90;;
5688;SDS011;2869;50.432;8.680;2022-08-18T09:54:06;17.77;;;15.93;;
5688;SDS011;2869;50.432;8.680;2022-08-18T09:56:56;24.17;;;17.03;;
5688;SDS011;2869;50.432;8.680;2022-08-18T09:59:51;20.43;;;16.27;;
5688;SDS011;2869;50.432;8.680;2022-08-18T10:08:53;18.57;;;15.77;;
5688;SDS011;2869;50.432;8.680;2022-08-18T10:11:42;16.70;;;14.90;;
5688;SDS011;2869;50.432;8.680;2022-08-18T10:14:29;20.27;;;15.57;;
5688;SDS011;2869;50.432;8.680;2022-08-18T10:17:11;20.10;;;16.17;;
5688;SDS011;2869;50.432;8.680;2022-08-18T10:19:55;17.30;;;15.50;;
5688;SDS011;2869;50.432;8.680;2022-08-18T10:22:35;19.03;;;16.10;;
5688;SDS011;2869;50.432;8.680;2022-08-18T10:25:05;27.20;;;16.10;;
5688;SDS011;2869;50.432;8.680;2022-08-18T10:27:45;17.97;;;16.00;;
5688;SDS011;2869;50.432;8.680;2022-08-18T10:30:43;21.58;;;16.20;;
5688;SDS011;2869;50.432;8.680;2022-08-18T10:39:14;19.73;;;15.97;;
5688;SDS011;2869;50.432;8.680;2022-08-18T10:41:48;16.50;;;14.83;;
5688;SDS011;2869;50.432;8.680;2022-08-18T10:44:29;18.63;;;15.60;;
5688;SDS011;2869;50.432;8.680;2022-08-18T10:47:01;19.90;;;15.67;;
5688;SDS011;2869;50.432;8.680;2022-08-18T10:49:29;19.13;;;15.00;;
5688;SDS011;2869;50.432;8.680;2022-08-18T10:52:20;22.23;;;14.68;;
5688;SDS011;2869;50.432;8.680;2022-08-18T10:55:06;17.55;;;15.07;;
5688;SDS011;2869;50.432;8.680;2022-08-18T10:57:52;18.53;;;14.00;;
5688;SDS011;2869;50.432;8.680;2022-08-18T11:00:47;24.13;;;14.77;;
5688;SDS011;2869;50.432;8.680;2022-08-18T11:03:28;17.93;;;14.30;;
5688;SDS011;2869;50.432;8.680;2022-08-18T11:06:04;14.13;;;12.63;;
5688;SDS011;2869;50.432;8.680;2022-08-18T11:08:34;15.20;;;11.97;;
5688;SDS011;2869;50.432;8.680;2022-08-18T11:11:09;23.10;;;13.80;;
5688;SDS011;2869;50.432;8.680;2022-08-18T11:13:40;13.90;;;12.50;;
5688;SDS011;2869;50.432;8.680;2022-08-18T11:16:19;17.33;;;12.53;;
5688;SDS011;2869;50.432;8.680;2022-08-18T11:19:05;15.10;;;12.80;;
5688;SDS011;2869;50.432;8.680;2022-08-18T11:21:37;23.70;;;14.50;;
5688;SDS011;2869;50.432;8.680;2022-08-18T11:24:08;16.15;;;14.45;;
5688;SDS011;2869;50.432;8.680;2022-08-18T11:26:39;17.27;;;14.13;;
5688;SDS011;2869;50.432;8.680;2022-08-18T11:29:29;19.40;;;14.73;;
5688;SDS011;2869;50.432;8.680;2022-08-18T11:31:59;19.70;;;14.83;;
5688;SDS011;2869;50.432;8.680;2022-08-18T11:34:33;20.87;;;15.40;;
5688;SDS011;2869;50.432;8.680;2022-08-18T11:37:03;17.13;;;14.27;;
5688;SDS011;2869;50.432;8.680;2022-08-18T11:39:32;17.10;;;13.83;;
5688;SDS011;2869;50.432;8.680;2022-08-18T11:42:08;16.48;;;14.20;;
5688;SDS011;2869;50.432;8.680;2022-08-18T11:44:35;17.10;;;13.73;;
5688;SDS011;2869;50.432;8.680;2022-08-18T11:47:09;18.10;;;13.07;;
5688;SDS011;2869;50.432;8.680;2022-08-18T11:49:48;20.07;;;14.00;;
5688;SDS011;2869;50.432;8.680;2022-08-18T11:52:22;27.93;;;13.90;;
5688;SDS011;2869;50.432;8.680;2022-08-18T11:54:50;21.50;;;14.67;;
5688;SDS011;2869;50.432;8.680;2022-08-18T11:57:36;16.90;;;15.10;;
5688;SDS011;2869;50.432;8.680;2022-08-18T12:03:03;16.27;;;14.07;;
5688;SDS011;2869;50.432;8.680;2022-08-18T12:05:39;19.47;;;15.40;;
5688;SDS011;2869;50.432;8.680;2022-08-18T12:08:15;15.80;;;14.20;;
5688;SDS011;2869;50.432;8.680;2022-08-18T12:10:47;17.97;;;14.33;;
5688;SDS011;2869;50.432;8.680;2022-08-18T12:13:26;20.13;;;13.80;;
5688;SDS011;2869;50.432;8.680;2022-08-18T12:16:10;14.50;;;13.10;;
5688;SDS011;2869;50.432;8.680;2022-08-18T12:18:39;16.17;;;14.57;;
5688;SDS011;2869;50.432;8.680;2022-08-18T12:21:07;15.45;;;13.85;;
5688;SDS011;2869;50.432;8.680;2022-08-18T12:23:35;15.53;;;13.93;;
5688;SDS011;2869;50.432;8.680;2022-08-18T12:26:05;16.05;;;13.00;;
5688;SDS011;2869;50.432;8.680;2022-08-18T12:28:33;18.10;;;15.40;;
5688;SDS011;2869;50.432;8.680;2022-08-18T12:31:00;18.57;;;13.77;;
5688;SDS011;2869;50.432;8.680;2022-08-18T12:33:27;18.67;;;14.50;;
5688;SDS011;2869;50.432;8.680;2022-08-18T12:35:53;22.93;;;15.63;;
5688;SDS011;2869;50.432;8.680;2022-08-18T12:38:20;15.33;;;13.73;;
5688;SDS011;2869;50.432;8.680;2022-08-18T12:40:47;17.50;;;14.43;;
5688;SDS011;2869;50.432;8.680;2022-08-18T12:43:14;16.17;;;13.00;;
5688;SDS011;2869;50.432;8.680;2022-08-18T12:45:42;16.17;;;13.37;;
5688;SDS011;2869;50.432;8.680;2022-08-18T12:48:08;14.73;;;13.23;;
5688;SDS011;2869;50.432;8.680;2022-08-18T12:50:36;16.20;;;14.60;;
5688;SDS011;2869;50.432;8.680;2022-08-18T12:53:03;19.83;;;13.80;;
5688;SDS011;2869;50.432;8.680;2022-08-18T12:55:33;20.30;;;13.10;;
5688;SDS011;2869;50.432;8.680;2022-08-18T12:58:01;18.43;;;13.10;;
5688;SDS011;2869;50.432;8.680;2022-08-18T13:00:29;16.10;;;11.93;;
5688;SDS011;2869;50.432;8.680;2022-08-18T13:02:57;16.80;;;12.80;;
5688;SDS011;2869;50.432;8.680;2022-08-18T13:05:24;13.57;;;12.20;;
5688;SDS011;2869;50.432;8.680;2022-08-18T13:07:52;14.60;;;11.87;;
5688;SDS011;2869;50.432;8.680;2022-08-18T13:10:19;15.17;;;13.57;;
5688;SDS011;2869;50.432;8.680;2022-08-18T13:12:45;16.83;;;12.40;;
5688;SDS011;2869;50.432;8.680;2022-08-18T13:15:12;14.80;;;11.52;;
5688;SDS011;2869;50.432;8.680;2022-08-18T13:17:39;16.17;;;13.20;;
5688;SDS011;2869;50.432;8.680;2022-08-18T13:20:08;16.67;;;12.60;;
5688;SDS011;2869;50.432;8.680;2022-08-18T13:22:37;14.00;;;12.50;;
5688;SDS011;2869;50.432;8.680;2022-08-18T13:25:05;13.93;;;11.30;;
5688;SDS011;2869;50.432;8.680;2022-08-18T13:27:34;12.73;;;11.43;;
5688;SDS011;2869;50.432;8.680;2022-08-18T13:30:02;12.00;;;10.90;;
5688;SDS011;2869;50.432;8.680;2022-08-18T13:32:33;12.63;;;11.40;;
5688;SDS011;2869;50.432;8.680;2022-08-18T13:34:59;12.57;;;11.30;;
5688;SDS011;2869;50.432;8.680;2022-08-18T13:37:27;13.07;;;11.70;;
5688;SDS011;2869;50.432;8.680;2022-08-18T13:39:56;12.80;;;11.50;;
5688;SDS011;2869;50.432;8.680;2022-08-18T13:42:23;13.50;;;12.20;;
5688;SDS011;2869;50.432;8.680;2022-08-18T13:44:51;13.60;;;12.20;;
5688;SDS011;2869;50.432;8.680;2022-08-18T13:47:19;16.30;;;12.20;;
5688;SDS011;2869;50.432;8.680;2022-08-18T13:49:46;13.53;;;12.23;;
5688;SDS011;2869;50.432;8.680;2022-08-18T13:52:12;11.60;;;10.60;;
5688;SDS011;2869;50.432;8.680;2022-08-18T13:54:40;11.07;;;10.03;;
5688;SDS011;2869;50.432;8.680;2022-08-18T13:57:09;10.40;;;9.40;;
5688;SDS011;2869;50.432;8.680;2022-08-18T13:59:35;10.57;;;9.53;;
5688;SDS011;2869;50.432;8.680;2022-08-18T14:02:03;10.00;;;8.23;;
5688;SDS011;2869;50.432;8.680;2022-08-18T14:04:32;9.00;;;7.60;;
5688;SDS011;2869;50.432;8.680;2022-08-18T14:07:00;8.07;;;7.30;;
5688;SDS011;2869;50.432;8.680;2022-08-18T14:09:27;9.27;;;7.37;;
5688;SDS011;2869;50.432;8.680;2022-08-18T14:11:56;7.47;;;6.88;;
5688;SDS011;2869;50.432;8.680;2022-08-18T14:14:23;10.00;;;7.40;;
5688;SDS011;2869;50.432;8.680;2022-08-18T14:16:49;7.93;;;7.13;;
5688;SDS011;2869;50.432;8.680;2022-08-18T14:19:16;9.13;;;7.47;;
5688;SDS011;2869;50.432;8.680;2022-08-18T14:22:00;9.53;;;8.40;;
5688;SDS011;2869;50.432;8.680;2022-08-18T14:24:44;9.07;;;7.43;;
5688;SDS011;2869;50.432;8.680;2022-08-18T14:27:30;7.53;;;6.77;;
5688;SDS011;2869;50.432;8.680;2022-08-18T14:29:58;8.17;;;7.47;;
5688;SDS011;2869;50.432;8.680;2022-08-18T14:32:25;8.20;;;7.30;;
5688;SDS011;2869;50.432;8.680;2022-08-18T14:34:53;7.85;;;7.10;;
5688;SDS011;2869;50.432;8.680;2022-08-18T14:37:22;8.00;;;7.30;;
5688;SDS011;2869;50.432;8.680;2022-08-18T14:39:49;8.07;;;7.18;;
5688;SDS011;2869;50.432;8.680;2022-08-18T14:42:15;8.02;;;7.32;;
5688;SDS011;2869;50.432;8.680;2022-08-18T14:44:46;7.97;;;6.90;;
5688;SDS011;2869;50.432;8.680;2022-08-18T14:47:13;6.70;;;6.13;;
5688;SDS011;2869;50.432;8.680;2022-08-18T14:49:40;7.13;;;6.55;;
5688;SDS011;2869;50.432;8.680;2022-08-18T14:52:07;8.60;;;7.68;;
5688;SDS011;2869;50.432;8.680;2022-08-18T14:54:35;10.50;;;6.80;;
5688;SDS011;2869;50.432;8.680;2022-08-18T14:57:02;8.90;;;8.00;;
5688;SDS011;2869;50.432;8.680;2022-08-18T14:59:30;11.67;;;7.87;;
5688;SDS011;2869;50.432;8.680;2022-08-18T15:01:59;8.77;;;8.00;;
5688;SDS011;2869;50.432;8.680;2022-08-18T15:04:25;9.53;;;8.53;;
5688;SDS011;2869;50.432;8.680;2022-08-18T15:06:52;8.93;;;8.20;;
5688;SDS011;2869;50.432;8.680;2022-08-18T15:09:19;9.77;;;8.87;;
5688;SDS011;2869;50.432;8.680;2022-08-18T15:11:47;10.50;;;9.40;;
5688;SDS011;2869;50.432;8.680;2022-08-18T15:14:15;10.90;;;9.80;;
5688;SDS011;2869;50.432;8.680;2022-08-18T15:16:41;10.43;;;9.37;;
5688;SDS011;2869;50.432;8.680;2022-08-18T15:19:09;11.30;;;10.10;;
5688;SDS011;2869;50.432;8.680;2022-08-18T15:21:36;11.85;;;9.82;;
5688;SDS011;2869;50.432;8.680;2022-08-18T15:24:23;10.67;;;9.57;;
5688;SDS011;2869;50.432;8.680;2022-08-18T15:27:07;14.80;;;10.60;;
5688;SDS011;2869;50.432;8.680;2022-08-18T15:29:33;8.87;;;7.97;;
5688;SDS011;2869;50.432;8.680;2022-08-18T15:32:00;11.10;;;9.57;;
5688;SDS011;2869;50.432;8.680;2022-08-18T15:34:28;9.25;;;8.32;;
5688;SDS011;2869;50.432;8.680;2022-08-18T15:36:55;14.20;;;9.27;;
5688;SDS011;2869;50.432;8.680;2022-08-18T15:39:22;11.18;;;9.25;;
5688;SDS011;2869;50.432;8.680;2022-08-18T15:41:49;10.77;;;9.73;;
5688;SDS011;2869;50.432;8.680;2022-08-18T15:44:17;11.13;;;10.13;;